Погода Галибицына 2 недели

Тверская область, Россия

15 - 28 июля
  • 15июля
    Сегодня
    +14°
    +27°
    Облачно с прояснениями
    ВремяПогодаТемператураВлажностьДавлениеВетер, м/сВероятность осадков
    00:00Облачно с прояснениями+17°C88 %755 мм0.0 м/с2 %
    03:00Облачно с прояснениями+16°C90 %755 мм0.0 м/с2 %
    06:00Практически безоблачно+16°C92 %756 мм0.0 м/с2 %
    09:00Ясно и безоблачно+22°C75 %757 мм0.7 м/с2 %
    12:00Практически безоблачно+25°C61 %757 мм1.0 м/с2 %
    15:00Облачно с прояснениями+26°C55 %757 мм1.3 м/с2 %
    18:00Практически безоблачно+26°C55 %757 мм0.7 м/с2 %
    21:00Практически безоблачно+21°C74 %757 мм0.6 м/с2 %
  • 16июля
    Вторник
    +16°
    +28°
    Практически безоблачно
    ВремяПогодаТемператураВлажностьДавлениеВетер, м/сВероятность осадков
    00:00Практически безоблачно+16°C84 %757 мм0.3 м/с2 %
    03:00Небольшая облачность+14°C86 %757 мм0.1 м/с3 %
    06:00Небольшая облачность+16°C91 %757 мм0.1 м/с11 %
    09:00Практически безоблачно+23°C71 %758 мм0.3 м/с7 %
    12:00Небольшая облачность+26°C58 %758 мм0.5 м/с11 %
    15:00Практически безоблачно+27°C57 %757 мм0.0 м/с19 %
    18:00Практически безоблачно+26°C56 %757 мм0.3 м/с23 %
    21:00Ясно и безоблачно+22°C74 %757 мм0.2 м/с2 %
  • 17июля
    Среда
    +17°
    +30°
    Облачно с прояснениями
    ВремяПогодаТемператураВлажностьДавлениеВетер, м/сВероятность осадков
    00:00Небольшая облачность+18°C86 %757 мм0.0 м/с2 %
    03:00Ясно и безоблачно+16°C91 %757 мм0.2 м/с2 %
    06:00Ясно и безоблачно+17°C86 %757 мм0.5 м/с2 %
    09:00Облачно с прояснениями+25°C69 %757 мм0.9 м/с2 %
    12:00Облачно с прояснениями+29°C57 %756 мм2.2 м/с25 %
    15:00Облачно с прояснениями+30°C59 %755 мм2.0 м/с28 %
    18:00Пасмурно, сплошная облачность+25°C90 %754 мм0.8 м/с40 %
    21:00Облачно с прояснениями+22°C94 %754 мм0.3 м/с45 %
  • 18июля
    Четверг
    +13°
    +27°
    Практически безоблачно
    ВремяПогодаТемператураВлажностьДавлениеВетер, м/сВероятность осадков
    00:00Небольшая облачность+18°C97 %754 мм0.0 м/с40 %
    03:00Облачно с прояснениями+18°C96 %754 мм0.8 м/с35 %
    06:00Пасмурно, сплошная облачность+18°C89 %754 мм2.0 м/с40 %
    09:00Пасмурно, небольшой дождь+21°C80 %755 мм2.1 м/с33 %
    12:00Ясно и безоблачно+25°C63 %755 мм2.9 м/с29 %
    15:00Практически безоблачно+26°C56 %755 мм2.8 м/с31 %
    18:00Облачно с прояснениями+25°C58 %755 мм1.7 м/с22 %
    21:00Небольшая облачность+20°C72 %755 мм0.1 м/с14 %
  • 19июля
    Пятница
    +12°
    +25°
    Облачно с прояснениями
    ВремяПогодаТемператураВлажностьДавлениеВетер, м/сВероятность осадков
    00:00Ясно и безоблачно+16°C83 %755 мм0.3 м/с8 %
    03:00Ясно и безоблачно+14°C88 %755 мм0.3 м/с6 %
    06:00Ясно и безоблачно+15°C90 %755 мм0.4 м/с4 %
    09:00Практически безоблачно+20°C76 %755 мм1.7 м/с16 %
    12:00Пасмурно, небольшой дождь+23°C62 %754 мм2.6 м/с55 %
    15:00Облачно с прояснениями+24°C56 %754 мм2.9 м/с41 %
    18:00Небольшая облачность+24°C51 %754 мм1.4 м/с38 %
    21:00Небольшая облачность+20°C71 %754 мм0.8 м/с22 %
Мы используем cookies
Соглашаюсь